Time;durP1;ratioP1;P1;durP2;ratioP2;P2;SDS_P1;SDS_P2;PMS_P1;PMS_P2;Temp;Humidity;BMP_temperature;BMP_pressure;BME280_temperature;BME280_humidity;BME280_pressure;Samples;Min_cycle;Max_cycle;Signal;HPM_P1;HPM_P2
2021/07/06 00:00:05;;;;;;;16.00;11.77;;;;;;;23.55;49.94;99727.88;3615147;39;20051;-69
2021/07/06 00:02:33;;;;;;;15.88;11.48;;;;;;;23.55;50.25;99738.56;3615134;39;20043;-70
2021/07/06 00:05:00;;;;;;;12.55;11.23;;;;;;;23.50;50.17;99740.84;3615803;39;20065;-66
2021/07/06 00:07:28;;;;;;;12.00;10.77;;;;;;;23.47;50.41;99735.81;3615121;39;20051;-65
2021/07/06 00:09:57;;;;;;;13.77;11.05;;;;;;;23.47;50.09;99736.66;3605604;39;20403;-65
2021/07/06 00:12:24;;;;;;;16.20;11.98;;;;;;;23.49;50.29;99733.81;3605210;39;20482;-65
2021/07/06 00:14:52;;;;;;;14.57;11.45;;;;;;;23.51;50.11;99734.50;3614959;39;20062;-65
2021/07/06 00:17:21;;;;;;;12.77;11.43;;;;;;;23.52;50.17;99738.84;3615316;39;20031;-65
2021/07/06 00:19:50;;;;;;;12.65;11.35;;;;;;;23.49;50.47;99736.50;3615096;39;20122;-65
2021/07/06 00:22:17;;;;;;;12.52;11.20;;;;;;;23.47;50.30;99741.16;3614926;39;20036;-65
2021/07/06 00:24:45;;;;;;;13.00;11.45;;;;;;;23.45;50.38;99735.97;3615301;39;20046;-66
2021/07/06 00:27:13;;;;;;;14.23;11.93;;;;;;;23.41;50.65;99740.78;3614967;39;20035;-65
2021/07/06 00:29:40;;;;;;;13.65;12.07;;;;;;;23.40;50.20;99739.09;3615652;39;20042;-66
2021/07/06 00:32:08;;;;;;;13.38;11.98;;;;;;;23.41;50.45;99745.28;3615104;39;20195;-66
2021/07/06 00:34:37;;;;;;;15.23;11.95;;;;;;;23.39;50.65;99745.44;3614767;39;20035;-67
2021/07/06 00:37:05;;;;;;;13.93;12.43;;;;;;;23.32;50.70;99744.41;3614718;39;20132;-68
2021/07/06 00:39:33;;;;;;;13.18;11.80;;;;;;;23.25;50.49;99743.31;3615587;39;20075;-68
2021/07/06 00:42:06;;;;;;;12.80;11.50;;;;;;;23.12;51.16;99742.84;3615150;39;20032;-68
2021/07/06 00:44:34;;;;;;;14.48;12.25;;;;;;;23.11;51.23;99743.81;3615443;39;20474;-68
2021/07/06 00:47:03;;;;;;;19.08;13.13;;;;;;;23.09;51.09;99741.28;3605090;39;20115;-67
2021/07/06 00:49:30;;;;;;;14.13;12.23;;;;;;;23.11;50.56;99746.50;3604926;39;20042;-68
2021/07/06 00:51:59;;;;;;;13.95;11.93;;;;;;;23.14;50.51;99743.53;3605030;39;20085;-68
2021/07/06 00:54:26;;;;;;;15.73;12.05;;;;;;;23.17;50.79;99758.44;3614885;39;20035;-69
2021/07/06 00:56:53;;;;;;;18.65;12.10;;;;;;;23.12;50.70;99761.56;3614981;39;20061;-69
2021/07/06 00:59:21;;;;;;;14.70;12.65;;;;;;;23.12;51.05;99764.25;3605742;39;20035;-70
2021/07/06 01:01:49;;;;;;;12.65;11.40;;;;;;;23.11;50.95;99765.19;3614957;39;20115;-69
2021/07/06 01:04:17;;;;;;;16.63;13.02;;;;;;;23.09;51.14;99775.22;3604950;39;20079;-70
2021/07/06 01:06:44;;;;;;;13.15;11.85;;;;;;;23.03;51.00;99770.47;3614900;39;20370;-69
2021/07/06 01:09:13;;;;;;;15.70;12.35;;;;;;;22.97;51.25;99766.56;3614856;39;20124;-69
2021/07/06 01:11:40;;;;;;;16.60;12.60;;;;;;;22.91;51.71;99764.50;3614501;39;20051;-70
2021/07/06 01:14:08;;;;;;;16.63;13.13;;;;;;;22.81;51.61;99764.53;3615191;39;20475;-71
2021/07/06 01:16:35;;;;;;;13.55;11.38;;;;;;;22.78;51.68;99775.50;3614881;39;20039;-71
2021/07/06 01:19:03;;;;;;;14.52;11.95;;;;;;;22.75;51.75;99762.44;3615478;39;20047;-71
2021/07/06 01:21:31;;;;;;;14.15;11.70;;;;;;;22.77;52.10;99770.31;3615073;39;20111;-71
2021/07/06 01:23:59;;;;;;;14.05;11.63;;;;;;;22.80;51.89;99775.34;3615287;39;20370;-71
2021/07/06 01:26:27;;;;;;;12.57;11.27;;;;;;;22.79;52.17;99771.84;3605487;39;20040;-71
2021/07/06 01:28:55;;;;;;;14.27;12.45;;;;;;;22.80;51.62;99770.84;3605538;39;20047;-71
2021/07/06 01:31:23;;;;;;;15.02;11.73;;;;;;;22.80;51.76;99772.69;3615399;39;20056;-71
2021/07/06 01:33:50;;;;;;;15.20;11.13;;;;;;;22.79;51.33;99765.66;3615654;39;20040;-70
2021/07/06 01:36:18;;;;;;;15.88;11.85;;;;;;;22.79;51.63;99763.81;3615682;39;20255;-70
2021/07/06 01:38:45;;;;;;;12.95;11.65;;;;;;;22.72;52.00;99770.75;3607155;39;20279;-72
2021/07/06 01:41:14;;;;;;;13.25;11.23;;;;;;;22.73;52.42;99771.59;3617186;39;20389;-67
2021/07/06 01:43:41;;;;;;;14.02;12.52;;;;;;;22.72;52.15;99773.44;3616579;39;20151;-69
2021/07/06 01:46:09;;;;;;;15.27;12.30;;;;;;;22.69;52.26;99771.03;3607206;39;20063;-69
2021/07/06 01:48:37;;;;;;;13.05;11.73;;;;;;;22.62;52.58;99766.44;3616949;39;20046;-70
2021/07/06 01:51:04;;;;;;;14.05;10.95;;;;;;;22.57;52.47;99774.91;3616828;39;20104;-72
2021/07/06 01:53:31;;;;;;;13.80;12.10;;;;;;;22.60;52.56;99769.25;3616785;39;20031;-68
2021/07/06 01:55:59;;;;;;;13.77;11.88;;;;;;;22.61;52.16;99778.94;3606835;39;20054;-69
2021/07/06 01:58:28;;;;;;;16.60;11.38;;;;;;;22.58;52.37;99779.25;3616533;39;20046;-69
2021/07/06 02:00:58;;;;;;;17.83;11.95;;;;;;;22.52;53.10;99782.50;3606927;39;20043;-68
2021/07/06 02:03:25;;;;;;;15.77;11.80;;;;;;;22.49;53.22;99778.31;3607079;39;20355;-69
2021/07/06 02:05:57;;;;;;;16.13;12.07;;;;;;;22.43;53.12;99783.38;3616580;39;20039;-69
2021/07/06 02:08:25;;;;;;;14.18;11.68;;;;;;;22.38;53.44;99777.63;3616567;39;20046;-68
2021/07/06 02:10:56;;;;;;;19.58;11.85;;;;;;;22.40;53.49;99783.66;3616553;39;20035;-68
2021/07/06 02:13:24;;;;;;;13.33;12.00;;;;;;;22.43;53.16;99780.69;3605352;39;20063;-68
2021/07/06 02:15:55;;;;;;;14.63;11.85;;;;;;;22.43;53.23;99783.38;3606092;39;20131;-68
2021/07/06 02:18:22;;;;;;;17.67;11.90;;;;;;;22.41;53.18;99782.69;3606119;39;20036;-68
2021/07/06 02:20:52;;;;;;;17.48;12.60;;;;;;;22.30;53.62;99778.38;3606044;39;20120;-69
2021/07/06 02:23:20;;;;;;;28.05;20.70;;;;;;;22.20;54.03;99778.38;3606596;39;20128;-69
2021/07/06 02:25:48;;;;;;;21.08;13.10;;;;;;;22.10;54.25;99777.56;3606471;39;20052;-69
2021/07/06 02:28:16;;;;;;;19.40;14.63;;;;;;;22.09;54.82;99775.91;3606116;39;20370;-71
2021/07/06 02:30:44;;;;;;;17.38;14.38;;;;;;;22.00;55.01;99790.06;3605058;39;20054;-70
2021/07/06 02:33:13;;;;;;;14.93;12.43;;;;;;;21.93;54.68;99791.63;3605947;39;20062;-71
2021/07/06 02:35:40;;;;;;;16.10;13.65;;;;;;;21.93;54.89;99791.63;3604957;39;20047;-70
2021/07/06 02:38:08;;;;;;;14.40;12.63;;;;;;;21.85;55.33;99788.78;3606154;39;20039;-70
2021/07/06 02:40:35;;;;;;;16.15;12.50;;;;;;;21.86;55.06;99795.81;3606177;39;20462;-70
2021/07/06 02:43:04;;;;;;;16.00;12.68;;;;;;;21.88;54.81;99797.38;3606195;39;20036;-69
2021/07/06 02:45:31;;;;;;;18.05;12.77;;;;;;;21.88;54.81;99800.06;3606468;39;20068;-70
2021/07/06 02:47:59;;;;;;;19.30;11.95;;;;;;;21.86;54.97;99802.03;3605905;39;20032;-71
2021/07/06 02:50:29;;;;;;;16.75;12.13;;;;;;;21.86;54.70;99806.50;3605239;39;20058;-69
2021/07/06 02:52:56;;;;;;;15.10;12.48;;;;;;;21.83;55.04;99801.44;3605965;39;20043;-68
2021/07/06 02:55:24;;;;;;;14.95;11.85;;;;;;;21.80;55.36;99804.41;3604949;39;20036;-68
2021/07/06 02:57:52;;;;;;;16.50;12.38;;;;;;;21.76;55.75;99808.34;3605903;39;20068;-68
2021/07/06 03:00:22;;;;;;;14.27;11.95;;;;;;;21.81;55.71;99817.59;3606213;39;20040;-67
2021/07/06 03:02:51;;;;;;;15.48;12.60;;;;;;;21.84;55.51;99824.47;3606036;39;20047;-67
2021/07/06 03:05:22;;;;;;;14.32;11.57;;;;;;;21.81;55.79;99825.59;3609057;39;20063;-70
2021/07/06 03:07:51;;;;;;;15.15;12.85;;;;;;;21.85;55.40;99826.16;3622583;39;20039;-70
2021/07/06 03:10:21;;;;;;;18.08;12.85;;;;;;;21.89;55.55;99827.59;3617535;39;20034;-65
2021/07/06 03:12:49;;;;;;;19.63;13.95;;;;;;;21.85;56.07;99826.16;3621711;39;20405;-66
2021/07/06 03:15:18;;;;;;;20.20;13.68;;;;;;;21.83;55.89;99825.47;3620344;39;20320;-65
2021/07/06 03:17:48;;;;;;;15.55;13.23;;;;;;;21.82;55.99;99823.78;3612586;39;20075;-68
2021/07/06 03:20:17;;;;;;;20.63;14.63;;;;;;;21.85;55.76;99831.50;3615408;39;20277;-65
2021/07/06 03:22:48;;;;;;;15.75;13.27;;;;;;;21.88;55.67;99831.25;3615973;39;20067;-67
2021/07/06 03:25:21;;;;;;;;;;;;;;;21.90;55.63;99832.78;3621025;39;20038;-68
2021/07/06 03:27:49;;;;;;;18.52;12.90;;;;;;;21.94;55.77;99841.34;3616069;39;19935;-67
2021/07/06 03:30:20;;;;;;;14.73;12.45;;;;;;;21.87;55.83;99837.56;3616166;39;20542;-65
2021/07/06 03:32:51;;;;;;;14.93;12.40;;;;;;;21.85;55.83;99831.50;3616166;39;20413;-65
2021/07/06 03:35:20;;;;;;;16.83;12.75;;;;;;;21.77;55.93;99831.38;3616061;39;20128;-65
2021/07/06 03:37:48;;;;;;;18.42;13.13;;;;;;;21.75;55.77;99833.34;3616129;39;20305;-64
2021/07/06 03:40:20;;;;;;;18.70;13.10;;;;;;;21.77;55.82;99834.03;3616239;39;20405;-66
2021/07/06 03:42:48;;;;;;;18.23;13.32;;;;;;;21.79;56.30;99834.72;3616689;39;20065;-64
2021/07/06 03:45:16;;;;;;;16.48;13.82;;;;;;;21.76;56.39;99838.53;3616124;39;20045;-65
2021/07/06 03:47:44;;;;;;;18.75;12.93;;;;;;;21.76;56.07;99835.00;3615947;39;20042;-65
2021/07/06 03:50:18;;;;;;;18.92;13.30;;;;;;;21.83;56.32;99839.63;3616639;39;20039;-66
2021/07/06 03:52:45;;;;;;;18.42;14.07;;;;;;;21.99;56.17;99841.75;3615635;39;20045;-66
2021/07/06 03:55:14;;;;;;;15.32;13.77;;;;;;;22.14;55.87;99843.03;3616475;39;20362;-64
2021/07/06 03:57:46;;;;;;;18.35;12.88;;;;;;;22.25;55.33;99843.84;3615931;39;20496;-63
2021/07/06 04:00:16;;;;;;;16.75;12.82;;;;;;;22.36;55.16;99846.38;3615181;39;20039;-66
2021/07/06 04:02:43;;;;;;;16.58;12.75;;;;;;;22.46;54.46;99848.03;3615766;39;20043;-66
2021/07/06 04:05:13;;;;;;;16.98;12.77;;;;;;;22.54;54.30;99844.66;3606565;39;20071;-65
2021/07/06 04:07:41;;;;;;;16.63;12.37;;;;;;;22.65;54.05;99846.28;3606470;39;20035;-65
2021/07/06 04:10:10;;;;;;;16.70;13.02;;;;;;;22.75;54.33;99853.28;3616429;39;20031;-65
2021/07/06 04:12:38;;;;;;;17.17;12.70;;;;;;;22.79;53.90;99849.34;3615585;39;20058;-65
2021/07/06 04:15:09;;;;;;;16.25;13.68;;;;;;;22.75;53.99;99852.47;3605955;39;20425;-65
2021/07/06 04:17:36;;;;;;;;;;;;;;;22.92;53.94;99853.56;3616837;39;20108;-65
2021/07/06 04:20:04;;;;;;;21.65;13.63;;;;;;;23.09;53.56;99852.75;3606303;39;19951;-65
2021/07/06 04:22:32;;;;;;;18.30;13.23;;;;;;;23.22;53.43;99850.56;3615653;39;20051;-64
2021/07/06 04:24:59;;;;;;;16.75;13.00;;;;;;;23.47;52.65;99858.88;3616279;39;20035;-65
2021/07/06 04:27:27;;;;;;;19.05;13.38;;;;;;;23.82;52.12;99852.75;3615529;39;20038;-65
2021/07/06 04:29:54;;;;;;;18.83;13.10;;;;;;;24.21;51.52;99854.09;3615495;39;20035;-65
2021/07/06 04:32:23;;;;;;;19.52;13.35;;;;;;;24.81;50.28;99845.28;3615433;39;20071;-65
2021/07/06 04:34:51;;;;;;;16.95;12.88;;;;;;;25.25;49.60;99847.84;3615383;39;20035;-64
2021/07/06 04:37:19;;;;;;;16.63;12.30;;;;;;;25.56;48.68;99851.63;3615675;39;20090;-65
2021/07/06 04:39:46;;;;;;;16.95;11.25;;;;;;;25.46;48.80;99843.72;3616050;39;20035;-66
2021/07/06 04:42:16;;;;;;;14.85;12.05;;;;;;;25.35;48.73;99849.38;3615725;39;20042;-65
2021/07/06 04:44:43;;;;;;;14.52;12.27;;;;;;;25.34;48.86;99850.38;3615449;39;20039;-65
2021/07/06 04:47:10;;;;;;;14.52;11.52;;;;;;;25.52;48.34;99847.59;3615437;39;20112;-66
2021/07/06 04:49:39;;;;;;;15.00;12.13;;;;;;;25.67;48.20;99854.03;3605812;39;20035;-65
2021/07/06 04:52:07;;;;;;;13.57;11.32;;;;;;;25.64;48.36;99848.97;3615243;39;20035;-65
2021/07/06 04:54:34;;;;;;;15.05;12.05;;;;;;;25.72;48.13;99856.22;3615876;39;20035;-65
2021/07/06 04:57:03;;;;;;;14.82;10.90;;;;;;;25.55;48.57;99852.63;3615325;39;20313;-65
2021/07/06 04:59:30;;;;;;;15.80;11.15;;;;;;;25.46;48.98;99851.78;3615776;39;20408;-65
2021/07/06 05:01:58;;;;;;;13.85;11.07;;;;;;;25.50;48.73;99853.13;3615275;39;20043;-65
2021/07/06 05:04:25;;;;;;;15.50;11.82;;;;;;;25.38;48.75;99858.94;3605617;39;20039;-65
2021/07/06 05:06:54;;;;;;;14.63;10.73;;;;;;;25.37;48.96;99862.63;3615453;39;20035;-65
2021/07/06 05:09:21;;;;;;;14.15;10.25;;;;;;;25.41;49.31;99867.53;3606182;39;20266;-66
2021/07/06 05:11:48;;;;;;;12.32;10.63;;;;;;;25.41;49.13;99869.38;3606319;39;20055;-66
2021/07/06 05:14:16;;;;;;;11.98;10.30;;;;;;;25.44;49.38;99869.03;3617433;39;20120;-66
2021/07/06 05:16:43;;;;;;;11.40;10.23;;;;;;;25.41;49.45;99869.38;3607342;39;20046;-66
2021/07/06 05:19:10;;;;;;;11.13;9.93;;;;;;;25.46;49.10;99878.63;3616840;39;20047;-66
2021/07/06 05:21:38;;;;;;;11.82;10.52;;;;;;;25.55;48.66;99876.78;3607130;39;20067;-66
2021/07/06 05:24:07;;;;;;;11.70;9.65;;;;;;;25.54;49.06;99875.94;3606971;39;20530;-66
2021/07/06 05:26:34;;;;;;;12.27;10.68;;;;;;;25.49;49.52;99882.81;3616912;39;20398;-66
2021/07/06 05:29:02;;;;;;;12.32;11.02;;;;;;;25.51;49.46;99881.63;3617356;39;20393;-66
2021/07/06 05:31:29;;;;;;;11.77;10.57;;;;;;;25.59;49.28;99888.88;3621361;39;20042;-64
2021/07/06 05:33:57;;;;;;;12.80;10.52;;;;;;;25.64;49.54;99886.53;3632707;39;20469;-64
2021/07/06 05:36:24;;;;;;;12.27;10.93;;;;;;;25.75;49.38;99888.09;3626908;39;20147;-65
2021/07/06 05:38:53;;;;;;;13.45;12.02;;;;;;;25.76;48.93;99887.94;3630679;39;20120;-65
2021/07/06 05:41:23;;;;;;;15.80;11.50;;;;;;;25.77;49.35;99881.56;3623863;39;20034;-66
2021/07/06 05:43:51;;;;;;;13.73;11.98;;;;;;;25.89;49.01;99887.47;3621580;39;20619;-61
2021/07/06 05:46:19;;;;;;;14.55;13.05;;;;;;;25.91;48.64;99887.28;3621224;39;20034;-61
2021/07/06 05:48:46;;;;;;;15.02;12.90;;;;;;;25.86;49.42;99887.78;3621117;39;20031;-61
2021/07/06 05:51:14;;;;;;;14.68;11.90;;;;;;;25.88;49.31;99887.63;3620641;39;20035;-61
2021/07/06 05:53:43;;;;;;;18.10;14.10;;;;;;;25.91;48.97;99895.34;3616448;39;20047;-61
2021/07/06 05:56:10;;;;;;;16.58;13.40;;;;;;;25.95;49.01;99886.78;3616631;39;20047;-60
2021/07/06 05:58:39;;;;;;;15.70;12.52;;;;;;;25.97;48.61;99891.97;3616716;39;20071;-70
2021/07/06 06:01:06;;;;;;;14.18;12.68;;;;;;;25.96;48.86;99887.63;3616607;39;20043;-70
2021/07/06 06:03:34;;;;;;;15.25;12.88;;;;;;;26.00;49.01;99892.50;3606922;39;20381;-69
2021/07/06 06:06:02;;;;;;;13.13;11.18;;;;;;;26.09;48.90;99893.34;3616580;39;20076;-69
2021/07/06 06:08:29;;;;;;;12.73;11.40;;;;;;;26.18;48.63;99889.66;3606860;39;20038;-71
2021/07/06 06:10:57;;;;;;;11.10;10.00;;;;;;;26.25;48.30;99879.94;3606659;39;20051;-70
2021/07/06 06:13:25;;;;;;;13.38;10.57;;;;;;;26.37;47.91;99889.34;3616049;39;20055;-69
2021/07/06 06:15:54;;;;;;;13.27;9.80;;;;;;;26.65;47.42;99878.22;3617010;39;20306;-68
2021/07/06 06:18:21;;;;;;;10.75;9.55;;;;;;;27.41;45.67;99879.50;3616601;39;20045;-68
2021/07/06 06:20:48;;;;;;;12.32;9.68;;;;;;;28.11;44.59;99880.25;3610760;39;20035;-68
2021/07/06 06:23:16;;;;;;;12.95;10.55;;;;;;;28.64;43.47;99880.31;3620598;39;20322;-68
2021/07/06 06:25:43;;;;;;;11.60;10.40;;;;;;;28.99;41.96;99882.31;3611581;39;20150;-68
2021/07/06 06:28:12;;;;;;;13.88;9.82;;;;;;;29.54;41.43;99889.06;3610481;39;20049;-68
2021/07/06 06:30:39;;;;;;;11.00;9.25;;;;;;;30.32;39.63;99890.09;3610773;39;20039;-69
2021/07/06 06:33:08;;;;;;;11.95;10.07;;;;;;;31.39;37.39;99885.19;3620979;39;20035;-68
2021/07/06 06:35:35;;;;;;;12.13;8.75;;;;;;;32.65;35.34;99878.09;3620623;39;20120;-67
2021/07/06 06:38:03;;;;;;;11.75;9.40;;;;;;;34.25;32.70;99877.22;3619820;39;20038;-68
2021/07/06 06:40:30;;;;;;;13.00;9.32;;;;;;;35.77;29.87;99874.75;3620635;39;20039;-68
2021/07/06 06:42:57;;;;;;;9.90;8.90;;;;;;;36.87;28.37;99880.56;3620644;39;20038;-69
2021/07/06 06:45:25;;;;;;;8.07;7.28;;;;;;;37.79;27.25;99887.94;3621162;39;20035;-71
2021/07/06 06:47:53;;;;;;;8.35;7.53;;;;;;;38.07;26.90;99895.25;3620435;39;20070;-71
2021/07/06 06:50:21;;;;;;;8.00;7.20;;;;;;;39.12;25.09;99890.91;3620791;39;20111;-62
2021/07/06 06:52:49;;;;;;;8.27;7.47;;;;;;;40.18;23.00;99891.28;3616057;39;20405;-59
2021/07/06 06:55:16;;;;;;;8.27;6.85;;;;;;;41.16;21.69;99893.63;3616219;39;20308;-62
2021/07/06 06:57:43;;;;;;;10.57;6.43;;;;;;;41.19;21.90;99901.34;3620485;39;20432;-63
2021/07/06 07:00:12;;;;;;;8.40;6.85;;;;;;;40.65;22.52;99893.34;3627309;39;20461;-62
2021/07/06 07:02:39;;;;;;;7.90;6.75;;;;;;;41.33;21.56;99908.84;3624481;39;20035;-66
2021/07/06 07:05:07;;;;;;;7.88;5.80;;;;;;;42.14;19.96;99904.69;3608505;39;20041;-63
2021/07/06 07:07:36;;;;;;;7.10;6.03;;;;;;;42.88;19.00;99910.44;3617967;39;20089;-67
2021/07/06 07:10:03;;;;;;;6.95;6.07;;;;;;;43.41;18.36;99912.75;3609363;39;20034;-67
2021/07/06 07:12:31;;;;;;;5.45;4.72;;;;;;;44.23;17.45;99908.41;3624023;39;20058;-67
2021/07/06 07:14:59;;;;;;;4.75;4.30;;;;;;;44.46;17.13;99911.50;3621646;39;20038;-68
2021/07/06 07:17:26;;;;;;;5.22;4.72;;;;;;;43.87;17.37;99909.75;3617760;39;20043;-68
2021/07/06 07:19:53;;;;;;;5.15;4.65;;;;;;;44.26;17.02;99907.81;3618156;39;20039;-69
2021/07/06 07:22:21;;;;;;;5.93;4.20;;;;;;;45.16;15.85;99917.44;3609561;39;20419;-66
2021/07/06 07:24:50;;;;;;;4.35;3.83;;;;;;;45.26;15.27;99904.34;3613295;39;20043;-69
2021/07/06 07:27:17;;;;;;;8.07;5.25;;;;;;;44.01;16.28;99916.28;3620047;39;20371;-67
2021/07/06 07:29:45;;;;;;;4.55;3.88;;;;;;;44.53;16.06;99918.38;3620649;39;20322;-68
2021/07/06 07:32:14;;;;;;;3.80;3.40;;;;;;;45.49;14.56;99919.25;3618383;39;20336;-65
2021/07/06 07:34:43;;;;;;;4.22;3.10;;;;;;;46.05;13.77;99921.25;3620165;39;20041;-65
2021/07/06 07:37:11;;;;;;;4.72;3.40;;;;;;;45.91;14.19;99919.50;3612344;39;20042;-64
2021/07/06 07:39:38;;;;;;;4.95;4.45;;;;;;;46.33;13.78;99918.56;3620648;39;20135;-65
2021/07/06 07:42:08;;;;;;;4.10;3.70;;;;;;;46.50;13.65;99915.25;3616111;39;20073;-64
2021/07/06 07:44:36;;;;;;;5.35;4.05;;;;;;;47.10;13.41;99916.06;3617950;39;20043;-65
2021/07/06 07:47:04;;;;;;;6.53;3.75;;;;;;;47.75;12.38;99920.53;3618235;39;20350;-65
2021/07/06 07:49:31;;;;;;;4.68;3.72;;;;;;;47.50;12.92;99922.75;3618993;39;20098;-60
2021/07/06 07:52:00;;;;;;;5.50;4.50;;;;;;;47.69;12.70;99917.06;3619326;39;20035;-64
2021/07/06 07:54:28;;;;;;;4.72;4.10;;;;;;;48.64;12.51;99923.34;3619337;39;20042;-69
2021/07/06 07:56:55;;;;;;;4.40;3.47;;;;;;;49.06;11.37;99919.13;3618761;39;20371;-66
2021/07/06 07:59:24;;;;;;;8.50;5.50;;;;;;;49.56;11.65;99927.09;3612966;39;20042;-66
2021/07/06 08:01:52;;;;;;;5.10;4.28;;;;;;;49.74;11.45;99928.78;3609052;39;20144;-66
2021/07/06 08:04:19;;;;;;;5.65;4.40;;;;;;;50.25;11.08;99923.53;3607063;39;20035;-64
2021/07/06 08:06:46;;;;;;;7.38;5.05;;;;;;;49.52;11.55;99917.75;3619180;39;20477;-66
2021/07/06 08:09:14;;;;;;;4.40;4.00;;;;;;;49.22;11.74;99913.09;3617761;39;20321;-66
2021/07/06 08:11:41;;;;;;;4.07;3.00;;;;;;;47.60;12.15;99921.69;3616808;39;20063;-66
2021/07/06 08:14:09;;;;;;;5.97;3.55;;;;;;;47.13;12.48;99921.00;3609917;39;20035;-64
2021/07/06 08:16:39;;;;;;;3.83;3.00;;;;;;;46.33;12.98;99910.25;3617630;39;20039;-65
2021/07/06 08:19:07;;;;;;;3.38;3.08;;;;;;;46.92;12.31;99912.25;3618797;39;20053;-63
2021/07/06 08:21:35;;;;;;;3.42;3.13;;;;;;;47.62;12.14;99911.91;3617891;39;20062;-64
2021/07/06 08:24:03;;;;;;;4.65;3.30;;;;;;;48.20;11.59;99910.25;3618508;39;20062;-64
2021/07/06 08:26:32;;;;;;;4.22;2.80;;;;;;;48.19;11.23;99908.63;3618640;39;20295;-64
2021/07/06 08:28:59;;;;;;;6.10;3.53;;;;;;;47.96;12.27;99908.63;3621074;39;20042;-66
2021/07/06 08:31:26;;;;;;;4.15;3.33;;;;;;;48.28;11.31;99905.91;3616255;39;20356;-64
2021/07/06 08:33:55;;;;;;;3.08;2.78;;;;;;;48.89;11.07;99896.75;3619428;39;20127;-66
2021/07/06 08:36:23;;;;;;;5.75;3.10;;;;;;;49.15;11.23;99899.69;3618671;39;20426;-65
2021/07/06 08:38:50;;;;;;;5.15;3.30;;;;;;;48.41;11.58;99914.19;3616742;39;20449;-61
2021/07/06 08:41:18;;;;;;;3.45;3.15;;;;;;;46.84;12.79;99921.28;3617894;39;20055;-61
2021/07/06 08:43:45;;;;;;;3.47;3.00;;;;;;;46.27;12.99;99914.25;3616908;39;20043;-63
2021/07/06 08:46:19;;;;;;;4.30;2.97;;;;;;;46.16;12.94;99908.88;3619001;39;20124;-59
2021/07/06 08:48:48;;;;;;;5.85;3.60;;;;;;;45.14;13.83;99911.38;3608106;39;20079;-60
2021/07/06 08:51:22;;;;;;;3.70;2.95;;;;;;;44.73;13.86;99899.94;3619612;39;20381;-59
2021/07/06 08:53:51;;;;;;;4.50;3.30;;;;;;;44.05;14.79;99918.19;3610664;39;20363;-61
2021/07/06 08:56:21;;;;;;;2.97;2.65;;;;;;;43.63;14.73;99904.91;3611298;39;20393;-59
2021/07/06 08:58:49;;;;;;;3.70;3.05;;;;;;;41.98;16.72;99912.06;3620498;39;20038;-65
2021/07/06 09:01:25;;;;;;;3.67;3.30;;;;;;;40.45;17.44;99905.00;3611424;39;20460;-62
2021/07/06 09:03:55;;;;;;;3.85;2.83;;;;;;;40.37;17.83;99908.19;3617995;39;20520;-60
2021/07/06 09:06:26;;;;;;;3.43;2.87;;;;;;;40.34;17.79;99905.97;3610162;39;20035;-58
2021/07/06 09:09:20;;;;;;;4.38;3.20;;;;;;;41.01;16.95;99902.63;3618299;39;20419;-61
2021/07/06 09:12:00;;;;;;;5.63;3.30;;;;;;;42.24;15.77;99901.91;3609249;39;20051;-61
2021/07/06 09:14:33;;;;;;;3.72;3.33;;;;;;;42.52;15.47;99904.16;3608882;39;20124;-62
2021/07/06 09:17:27;;;;;;;4.25;3.25;;;;;;;41.68;16.59;99904.59;3609940;39;20124;-62
2021/07/06 09:20:02;;;;;;;4.38;3.30;;;;;;;41.49;17.06;99903.41;3608552;39;20046;-60
2021/07/06 09:22:33;;;;;;;6.05;3.75;;;;;;;41.74;17.18;99911.75;3609342;39;20036;-61
2021/07/06 09:25:02;;;;;;;4.28;3.88;;;;;;;42.53;16.57;99913.25;3614616;39;20046;-61
2021/07/06 09:27:32;;;;;;;4.90;3.40;;;;;;;42.67;15.83;99916.22;3611658;39;20053;-62
2021/07/06 09:30:15;;;;;;;3.47;2.97;;;;;;;42.60;16.03;99909.09;3611402;39;20075;-67
2021/07/06 09:32:45;;;;;;;3.78;3.10;;;;;;;42.42;16.06;99906.03;3606887;39;20058;-67
2021/07/06 09:35:16;;;;;;;3.17;2.83;;;;;;;41.36;16.15;99904.75;3607591;39;20066;-66
2021/07/06 09:37:48;;;;;;;3.67;3.28;;;;;;;39.73;18.17;99903.47;3608894;39;20144;-67
2021/07/06 09:40:23;;;;;;;5.47;3.15;;;;;;;39.27;19.61;99904.81;3612576;39;20414;-67
2021/07/06 09:43:13;;;;;;;3.90;3.30;;;;;;;38.90;19.86;99910.88;3616794;39;20039;-68
2021/07/06 09:45:42;;;;;;;4.55;3.35;;;;;;;38.30;20.68;99914.31;3616032;39;20135;-68
2021/07/06 09:48:11;;;;;;;3.33;3.03;;;;;;;37.49;21.03;99910.88;3612243;39;20062;-70
2021/07/06 09:50:40;;;;;;;3.65;3.22;;;;;;;37.16;21.75;99906.03;3611327;39;20039;-65
2021/07/06 09:53:27;;;;;;;5.05;3.65;;;;;;;36.75;22.43;99914.38;3613157;39;20035;-66
2021/07/06 09:55:55;;;;;;;3.75;3.42;;;;;;;36.63;22.23;99907.00;3614020;39;20040;-60
2021/07/06 09:58:24;;;;;;;3.95;3.15;;;;;;;36.30;22.21;99904.00;3610512;39;20083;-60
2021/07/06 10:00:52;;;;;;;5.57;3.78;;;;;;;35.82;22.82;99904.91;3615879;39;20034;-61
2021/07/06 10:03:20;;;;;;;6.13;3.58;;;;;;;35.21;23.65;99922.22;3612159;39;20035;-62
2021/07/06 10:05:51;;;;;;;5.82;4.75;;;;;;;35.00;24.25;99904.44;3612160;39;20413;-60
2021/07/06 10:08:19;;;;;;;7.80;6.82;;;;;;;35.05;24.28;99904.59;3609360;39;20406;-60
2021/07/06 10:10:49;;;;;;;3.97;3.20;;;;;;;35.02;24.22;99902.31;3614343;39;20055;-59
2021/07/06 10:13:17;;;;;;;5.75;3.08;;;;;;;34.96;24.12;99905.09;3617650;39;20098;-59
2021/07/06 10:15:47;;;;;;;3.50;3.20;;;;;;;34.92;24.33;99895.72;3608042;39;20066;-60
2021/07/06 10:18:15;;;;;;;5.38;3.35;;;;;;;34.86;25.19;99902.06;3618309;39;20388;-60
2021/07/06 10:20:43;;;;;;;3.67;3.08;;;;;;;34.93;24.93;99900.09;3617327;39;20318;-60
2021/07/06 10:23:11;;;;;;;5.07;2.80;;;;;;;34.88;24.52;99891.78;3608907;39;20393;-62
2021/07/06 10:25:41;;;;;;;3.75;3.25;;;;;;;34.87;25.25;99890.13;3622039;39;20105;-58
2021/07/06 10:28:18;;;;;;;3.65;3.28;;;;;;;34.77;24.46;99882.44;3619425;39;20043;-58
2021/07/06 10:30:47;;;;;;;3.75;3.35;;;;;;;34.52;24.49;99894.19;3620524;39;20039;-56
2021/07/06 10:33:16;;;;;;;5.10;3.20;;;;;;;34.34;24.96;99879.66;3620388;39;20059;-60
2021/07/06 10:35:50;;;;;;;3.72;3.22;;;;;;;34.31;25.77;99874.66;3619083;39;20047;-59
2021/07/06 10:38:43;;;;;;;5.25;3.40;;;;;;;33.93;26.18;99865.53;3621895;39;20615;-59
2021/07/06 10:41:15;;;;;;;7.32;3.92;;;;;;;33.59;26.79;99876.81;3623390;39;20039;-60
2021/07/06 10:43:59;;;;;;;6.13;3.53;;;;;;;33.41;26.45;99872.09;3613840;39;20039;-63
2021/07/06 10:46:44;;;;;;;4.82;3.78;;;;;;;33.64;26.18;99877.81;3609457;39;20051;-60
2021/07/06 10:49:15;;;;;;;4.88;3.00;;;;;;;33.83;26.40;99880.66;3620447;39;20043;-60
2021/07/06 10:51:49;;;;;;;7.63;3.60;;;;;;;33.96;25.98;99877.88;3621258;39;20038;-60
2021/07/06 10:54:18;;;;;;;6.63;3.30;;;;;;;33.97;26.97;99881.44;3622239;39;20050;-60
2021/07/06 10:56:47;;;;;;;6.35;3.58;;;;;;;34.04;25.97;99880.31;3611845;39;20082;-60
2021/07/06 10:59:22;;;;;;;6.55;3.60;;;;;;;33.81;26.85;99880.88;3624757;39;20066;-61
2021/07/06 11:02:01;;;;;;;7.28;3.63;;;;;;;33.80;26.26;99873.75;3620313;39;20038;-61
2021/07/06 11:05:05;;;;;;;5.18;3.22;;;;;;;33.44;26.50;99879.81;3619540;39;20043;-61
2021/07/06 11:07:51;;;;;;;4.25;3.33;;;;;;;33.28;27.15;99880.25;3621466;39;20376;-61
2021/07/06 11:10:20;;;;;;;6.68;3.38;;;;;;;33.16;27.55;99871.13;3621435;39;20247;-61
2021/07/06 11:12:51;;;;;;;5.45;3.42;;;;;;;32.96;27.44;99880.19;3619287;39;20057;-61
2021/07/06 11:15:30;;;;;;;3.92;3.22;;;;;;;32.83;27.09;99869.34;3625225;39;20054;-62
2021/07/06 11:18:05;;;;;;;4.20;3.33;;;;;;;32.73;27.23;99868.94;3620150;39;20046;-63
2021/07/06 11:20:36;;;;;;;4.45;3.88;;;;;;;32.75;27.02;99869.53;3622416;39;20131;-60
2021/07/06 11:23:06;;;;;;;10.95;3.55;;;;;;;32.72;27.51;99864.53;3608627;39;20041;-65
2021/07/06 11:25:45;;;;;;;4.00;3.53;;;;;;;32.64;27.57;99862.03;3622026;39;20050;-62
2021/07/06 11:28:14;;;;;;;4.70;3.65;;;;;;;32.65;27.91;99861.00;3622824;39;20049;-58
2021/07/06 11:30:45;;;;;;;4.20;3.47;;;;;;;32.56;27.71;99859.56;3619467;39;20075;-59
2021/07/06 11:33:16;;;;;;;8.07;3.95;;;;;;;32.48;28.01;99862.47;3617299;39;20502;-61